Time;durP1;ratioP1;P1;durP2;ratioP2;P2;SDS_P1;SDS_P2;PMS_P1;PMS_P2;Temp;Humidity;BMP_temperature;BMP_pressure;BME280_temperature;BME280_humidity;BME280_pressure;Samples;Min_cycle;Max_cycle;Signal;HPM_P1;HPM_P2
2024/02/10 00:00:24;;;;;;;2.58;2.38;;;;;;;11.56;100.00;97486.59;10189612;28;20639;-65
2024/02/10 00:05:26;;;;;;;3.80;2.70;;;;;;;11.60;100.00;97491.31;10195605;28;20063;-64
2024/02/10 00:10:28;;;;;;;2.83;2.50;;;;;;;11.54;100.00;97492.09;10203808;28;20216;-63
2024/02/10 00:15:29;;;;;;;2.55;2.13;;;;;;;11.60;100.00;97486.00;10187609;28;20119;-63
2024/02/10 00:20:33;;;;;;;2.83;2.25;;;;;;;11.55;100.00;97477.78;10190422;28;20047;-63
2024/02/10 00:25:34;;;;;;;1.60;1.30;;;;;;;11.54;100.00;97484.13;10201483;28;20739;-63
2024/02/10 00:30:37;;;;;;;1.48;1.08;;;;;;;11.46;100.00;97478.97;10203005;28;20085;-63
2024/02/10 00:35:39;;;;;;;1.65;1.10;;;;;;;11.52;100.00;97485.34;10200454;28;20059;-63
2024/02/10 00:40:41;;;;;;;1.65;1.33;;;;;;;11.53;100.00;97479.00;10197568;28;20059;-63
2024/02/10 00:45:46;;;;;;;1.50;0.82;;;;;;;11.52;100.00;97475.50;10171552;28;20435;-63
2024/02/10 00:50:48;;;;;;;1.05;0.85;;;;;;;11.49;100.00;97476.72;10213449;28;20077;-62
2024/02/10 00:55:50;;;;;;;1.95;1.05;;;;;;;11.54;100.00;97475.31;10196910;28;20082;-63
2024/02/10 01:00:51;;;;;;;2.22;0.90;;;;;;;11.61;100.00;97476.19;10196963;28;20050;-63
2024/02/10 01:05:54;;;;;;;1.67;0.90;;;;;;;11.64;100.00;97471.25;10185621;28;20148;-64
2024/02/10 01:10:55;;;;;;;1.52;1.00;;;;;;;11.66;100.00;97477.22;10204570;28;20145;-65
2024/02/10 01:15:57;;;;;;;0.75;0.50;;;;;;;11.67;100.00;97470.06;10201997;28;20078;-63
2024/02/10 01:21:00;;;;;;;1.67;0.73;;;;;;;11.63;100.00;97464.31;10189155;28;20060;-64
2024/02/10 01:26:02;;;;;;;1.23;0.93;;;;;;;11.60;100.00;97462.00;10193483;28;20999;-64
2024/02/10 01:31:08;;;;;;;1.80;0.85;;;;;;;11.61;100.00;97466.34;10210363;28;20649;-64
2024/02/10 01:36:09;;;;;;;0.70;0.32;;;;;;;11.59;100.00;97468.38;10195719;28;20058;-64
2024/02/10 01:41:13;;;;;;;0.98;0.40;;;;;;;11.53;100.00;97463.84;10196412;28;20063;-63
2024/02/10 01:46:20;;;;;;;2.38;0.80;;;;;;;11.55;100.00;97469.78;10197546;28;20118;-64
2024/02/10 01:51:25;;;;;;;0.80;0.30;;;;;;;11.59;100.00;97460.38;10196612;28;20082;-64
2024/02/10 01:56:29;;;;;;;1.85;0.60;;;;;;;11.54;100.00;97460.16;10205149;28;20660;-63
2024/02/10 02:01:31;;;;;;;2.13;0.70;;;;;;;11.58;100.00;97452.59;10214272;28;20550;-63
2024/02/10 02:06:33;;;;;;;0.65;0.30;;;;;;;11.60;100.00;97451.34;10202679;28;20055;-64
2024/02/10 02:11:49;;;;;;;2.25;0.63;;;;;;;11.58;100.00;97445.41;10200556;28;20054;-63
2024/02/10 02:16:50;;;;;;;5.28;0.63;;;;;;;11.53;100.00;97434.53;10200772;28;20051;-63
2024/02/10 02:21:52;;;;;;;1.92;0.50;;;;;;;11.60;100.00;97446.03;10194930;28;20043;-65
2024/02/10 02:26:54;;;;;;;1.17;0.50;;;;;;;11.57;100.00;97449.09;10196308;28;20440;-63
2024/02/10 02:32:00;;;;;;;1.20;0.40;;;;;;;11.58;100.00;97434.75;10204393;28;20110;-63
2024/02/10 02:37:03;;;;;;;1.60;0.60;;;;;;;11.62;100.00;97430.69;10199681;28;20059;-63
2024/02/10 02:42:05;;;;;;;0.90;0.50;;;;;;;11.61;100.00;97428.22;10203672;28;20042;-62
2024/02/10 02:47:07;;;;;;;0.70;0.45;;;;;;;11.61;100.00;97423.69;10203728;28;20059;-63
2024/02/10 02:52:09;;;;;;;0.73;0.25;;;;;;;11.60;100.00;97427.38;10199574;28;20276;-63
2024/02/10 02:57:10;;;;;;;0.82;0.35;;;;;;;11.59;100.00;97424.91;10204076;28;20063;-64
2024/02/10 03:02:12;;;;;;;1.20;0.30;;;;;;;11.39;100.00;97393.69;10206444;28;20054;-63
2024/02/10 03:07:19;;;;;;;1.75;0.45;;;;;;;11.57;100.00;97414.47;10203915;28;20074;-64
2024/02/10 03:12:20;;;;;;;1.27;0.40;;;;;;;11.59;100.00;97420.44;10207536;28;20074;-63
2024/02/10 03:17:22;;;;;;;2.58;0.38;;;;;;;11.61;100.00;97412.22;10203653;28;20132;-63
2024/02/10 03:22:23;;;;;;;0.70;0.30;;;;;;;11.60;100.00;97415.91;10196764;28;20051;-64
2024/02/10 03:27:25;;;;;;;0.93;0.45;;;;;;;11.64;100.00;97411.84;10195590;28;20055;-63
2024/02/10 03:32:32;;;;;;;1.33;0.30;;;;;;;11.63;100.00;97400.38;10205930;28;20052;-63
2024/02/10 03:37:35;;;;;;;3.03;0.50;;;;;;;11.62;100.00;97398.72;10204374;28;20050;-63
2024/02/10 03:42:37;;;;;;;1.67;0.60;;;;;;;11.57;100.00;97393.16;10201654;28;20532;-63
2024/02/10 03:47:42;;;;;;;0.98;0.30;;;;;;;11.63;100.00;97399.53;10202507;28;20150;-64
2024/02/10 03:52:45;;;;;;;0.60;0.20;;;;;;;11.53;100.00;97394.59;10198358;28;21157;-63
2024/02/10 03:57:48;;;;;;;1.05;0.55;;;;;;;11.54;100.00;97393.53;10206326;28;20062;-64
2024/02/10 04:02:52;;;;;;;3.67;0.30;;;;;;;11.59;100.00;97395.59;10216058;28;20145;-64
2024/02/10 04:07:54;;;;;;;1.17;0.50;;;;;;;11.63;100.00;97402.19;10204854;28;20594;-64
2024/02/10 04:12:55;;;;;;;1.55;0.45;;;;;;;11.60;100.00;97395.41;10197603;28;20058;-63
2024/02/10 04:17:59;;;;;;;0.60;0.20;;;;;;;11.67;100.00;97400.78;10199387;28;20047;-64
2024/02/10 04:23:05;;;;;;;0.57;0.30;;;;;;;11.68;100.00;97391.78;10204382;28;20176;-64
2024/02/10 04:28:06;;;;;;;;;;;;;;;11.69;100.00;97388.06;10204688;28;20127;-64
2024/02/10 04:33:13;;;;;;;1.98;0.50;;;;;;;11.70;100.00;97383.56;10198850;28;20141;-63
2024/02/10 04:38:17;;;;;;;1.02;0.43;;;;;;;11.68;100.00;97389.09;10200444;28;20044;-64
2024/02/10 04:43:19;;;;;;;0.65;0.32;;;;;;;11.71;100.00;97379.88;10185128;28;20220;-64
2024/02/10 04:48:22;;;;;;;1.10;0.40;;;;;;;11.74;100.00;97377.63;10201400;28;20054;-64
2024/02/10 04:53:26;;;;;;;0.63;0.38;;;;;;;11.69;100.00;97372.06;10194985;28;20054;-63
2024/02/10 04:58:28;;;;;;;0.70;0.50;;;;;;;11.70;100.00;97381.72;10205771;28;22891;-62
2024/02/10 05:03:29;;;;;;;1.25;0.63;;;;;;;11.74;100.00;97385.63;10198597;28;20729;-62
2024/02/10 05:08:30;;;;;;;1.63;0.90;;;;;;;11.74;100.00;97379.47;10205453;28;20675;-64
2024/02/10 05:13:32;;;;;;;0.90;0.88;;;;;;;11.59;100.00;97372.47;10201591;28;20178;-64
2024/02/10 05:18:33;;;;;;;1.60;1.27;;;;;;;11.64;100.00;97386.00;10206131;28;20799;-64
2024/02/10 05:23:37;;;;;;;1.90;1.10;;;;;;;11.65;100.00;97389.50;10209133;28;20047;-63
2024/02/10 05:28:40;;;;;;;1.27;1.00;;;;;;;11.75;100.00;97387.25;10191665;28;20465;-63
2024/02/10 05:33:43;;;;;;;1.00;0.90;;;;;;;11.61;100.00;97351.78;10203609;28;20034;-63
2024/02/10 05:38:47;;;;;;;1.63;0.90;;;;;;;11.83;100.00;97372.94;10221997;28;20614;-64
2024/02/10 05:43:48;;;;;;;2.72;1.20;;;;;;;11.78;100.00;97370.84;10203952;28;20055;-63
2024/02/10 05:48:50;;;;;;;1.63;1.13;;;;;;;11.83;100.00;97388.94;10186116;28;20185;-64
2024/02/10 05:53:52;;;;;;;1.60;1.17;;;;;;;11.86;100.00;97393.88;10205428;28;20343;-63
2024/02/10 05:58:57;;;;;;;1.90;1.15;;;;;;;11.83;100.00;97399.59;10187111;28;20760;-63
2024/02/10 06:03:58;;;;;;;1.35;1.15;;;;;;;11.83;100.00;97399.59;10203864;28;20162;-62
2024/02/10 06:09:00;;;;;;;1.70;1.50;;;;;;;11.87;100.00;97410.66;10204696;28;20252;-63
2024/02/10 06:14:04;;;;;;;2.05;1.38;;;;;;;11.81;100.00;97401.63;10189825;28;20402;-64
2024/02/10 06:19:06;;;;;;;2.20;1.40;;;;;;;11.76;100.00;97407.56;10191369;28;20050;-64
2024/02/10 06:24:12;;;;;;;2.65;1.80;;;;;;;11.78;100.00;97412.69;10198935;28;20057;-63
2024/02/10 06:29:15;;;;;;;1.73;1.35;;;;;;;11.80;100.00;97416.81;10197208;28;20191;-63
2024/02/10 06:34:17;;;;;;;3.30;2.13;;;;;;;11.72;100.00;97421.50;10196866;28;20107;-63
2024/02/10 06:39:20;;;;;;;2.57;1.60;;;;;;;11.81;100.00;97434.44;10204073;28;20085;-64
2024/02/10 06:44:22;;;;;;;2.95;1.65;;;;;;;11.81;100.00;97423.78;10206018;28;20304;-63
2024/02/10 06:49:23;;;;;;;2.42;1.98;;;;;;;11.74;100.00;97411.44;10216398;28;20058;-64
2024/02/10 06:54:24;;;;;;;2.33;1.90;;;;;;;11.79;100.00;97420.47;10190842;28;20135;-64
2024/02/10 06:59:26;;;;;;;3.47;2.15;;;;;;;11.77;100.00;97417.22;10209262;28;20145;-63
2024/02/10 07:04:28;;;;;;;1.83;1.65;;;;;;;11.77;100.00;97416.38;10207599;28;20133;-63
2024/02/10 07:09:30;;;;;;;2.17;1.80;;;;;;;11.74;100.00;97411.44;10205370;28;20559;-64
2024/02/10 07:14:33;;;;;;;3.25;2.60;;;;;;;11.67;100.00;97411.44;10212389;28;20061;-63
2024/02/10 07:19:35;;;;;;;2.88;2.58;;;;;;;11.76;100.00;97430.72;10210277;28;20205;-64
2024/02/10 07:24:38;;;;;;;2.92;2.10;;;;;;;11.70;100.00;97447.53;10210967;28;20159;-64
2024/02/10 07:29:44;;;;;;;2.33;1.67;;;;;;;11.70;100.00;97442.19;10193851;28;20206;-64
2024/02/10 07:34:47;;;;;;;2.83;2.08;;;;;;;11.68;100.00;97445.88;10206220;28;20054;-64
2024/02/10 07:39:50;;;;;;;2.13;1.60;;;;;;;11.83;100.00;97447.56;10204106;28;20595;-63
2024/02/10 07:44:55;;;;;;;2.72;2.40;;;;;;;11.72;100.00;97429.47;10203345;28;20099;-63
2024/02/10 07:49:58;;;;;;;1.92;1.77;;;;;;;11.90;100.00;97448.38;10186105;28;20135;-63
2024/02/10 07:55:01;;;;;;;3.53;2.30;;;;;;;11.94;100.00;97448.88;10202505;28;20052;-63
2024/02/10 08:00:03;;;;;;;3.20;2.38;;;;;;;11.92;100.00;97462.34;10179997;28;20515;-62
2024/02/10 08:05:06;;;;;;;2.55;1.98;;;;;;;12.00;100.00;97470.19;10219671;28;20191;-63
2024/02/10 08:10:08;;;;;;;3.15;2.47;;;;;;;11.77;100.00;97433.19;10201792;28;20895;-63
2024/02/10 08:15:10;;;;;;;3.20;2.10;;;;;;;12.03;100.00;97471.66;10199820;28;20059;-63
2024/02/10 08:20:12;;;;;;;3.28;2.30;;;;;;;12.08;100.00;97466.53;10202415;28;20226;-63
2024/02/10 08:25:13;;;;;;;3.25;2.70;;;;;;;12.08;100.00;97466.53;10206649;28;20580;-64
2024/02/10 08:30:17;;;;;;;5.03;3.10;;;;;;;12.14;100.00;97460.38;10203802;28;20165;-64
2024/02/10 08:35:19;;;;;;;2.92;2.63;;;;;;;12.19;100.00;97463.28;10200337;28;20273;-64
2024/02/10 08:40:21;;;;;;;3.05;2.60;;;;;;;12.31;100.00;97463.50;10203667;28;20047;-64
2024/02/10 08:45:22;;;;;;;3.00;2.33;;;;;;;12.34;100.00;97454.25;10201883;28;20057;-63
2024/02/10 08:50:24;;;;;;;2.60;2.40;;;;;;;12.43;100.00;97449.56;10202336;28;20051;-64
2024/02/10 08:55:27;;;;;;;3.60;2.00;;;;;;;12.47;100.00;97434.78;10208430;28;20062;-63
2024/02/10 09:00:29;;;;;;;4.30;2.50;;;;;;;12.55;100.00;97435.41;10198267;28;20117;-64
2024/02/10 09:05:31;;;;;;;4.13;2.20;;;;;;;12.55;100.00;97440.75;10190283;28;20192;-65
2024/02/10 09:10:33;;;;;;;4.32;2.38;;;;;;;12.67;100.00;97435.63;10220680;28;20056;-63
2024/02/10 09:15:34;;;;;;;2.58;1.95;;;;;;;12.73;100.00;97432.13;10200675;28;20167;-63
2024/02/10 09:20:36;;;;;;;7.18;2.65;;;;;;;12.80;100.00;97426.75;10186662;28;20532;-64
2024/02/10 09:25:40;;;;;;;3.47;2.22;;;;;;;12.91;100.00;97423.47;10188494;28;20051;-62
2024/02/10 09:30:45;;;;;;;4.53;2.53;;;;;;;13.05;100.00;97408.25;10199060;28;20055;-64
2024/02/10 09:35:48;;;;;;;10.70;2.78;;;;;;;13.13;100.00;97399.19;10202312;28;20617;-64
2024/02/10 09:40:56;;;;;;;2.60;2.20;;;;;;;13.14;100.00;97386.69;10209926;28;20059;-63
2024/02/10 09:46:02;;;;;;;3.17;2.05;;;;;;;13.28;100.00;97401.59;10199733;28;20453;-64
2024/02/10 09:51:04;;;;;;;5.20;2.33;;;;;;;13.20;100.00;97400.00;10186704;28;20055;-64
2024/02/10 09:56:14;;;;;;;3.70;2.58;;;;;;;13.24;100.00;97403.06;10202380;28;20065;-64
2024/02/10 10:01:18;;;;;;;3.95;3.03;;;;;;;13.26;100.00;97382.31;10202051;28;20043;-64
2024/02/10 10:06:21;;;;;;;3.45;2.78;;;;;;;13.23;100.00;97380.88;10207083;28;20051;-64
2024/02/10 10:11:22;;;;;;;3.55;2.33;;;;;;;13.17;100.00;97378.25;10209234;28;20203;-65
2024/02/10 10:16:24;;;;;;;3.33;1.75;;;;;;;13.16;100.00;97385.41;10168487;28;20635;-65
2024/02/10 10:21:30;;;;;;;4.45;2.00;;;;;;;13.16;100.00;97392.63;10213398;28;20055;-65
2024/02/10 10:26:32;;;;;;;3.65;1.73;;;;;;;13.24;100.00;97401.22;10205035;28;20056;-65
2024/02/10 10:31:33;;;;;;;2.13;1.55;;;;;;;13.18;100.00;97385.19;10196404;28;20660;-66
2024/02/10 10:36:36;;;;;;;4.25;2.03;;;;;;;13.34;100.00;97394.63;10197250;28;20055;-65
2024/02/10 10:41:38;;;;;;;3.35;1.63;;;;;;;13.43;100.00;97394.19;10195646;28;21224;-64
2024/02/10 10:46:40;;;;;;;3.50;2.40;;;;;;;13.50;100.00;97401.38;10202220;28;20074;-65
2024/02/10 10:51:57;;;;;;;4.13;2.40;;;;;;;13.58;100.00;97393.91;10150992;28;20071;-64
2024/02/10 10:57:03;;;;;;;2.88;2.22;;;;;;;13.64;100.00;97388.75;10203390;28;20039;-65
2024/02/10 11:02:09;;;;;;;4.40;2.03;;;;;;;13.70;100.00;97391.38;10199443;28;20058;-66
2024/02/10 11:07:11;;;;;;;3.88;2.25;;;;;;;13.64;100.00;97378.06;10176008;28;20062;-65
2024/02/10 11:12:18;;;;;;;2.95;2.00;;;;;;;13.79;100.00;97387.44;10187558;28;20055;-65
2024/02/10 11:17:20;;;;;;;3.50;2.38;;;;;;;13.92;100.00;97381.19;10188631;28;20617;-65
2024/02/10 11:22:26;;;;;;;4.07;2.20;;;;;;;14.03;100.00;97377.00;10185318;28;20043;-64
2024/02/10 11:27:30;;;;;;;3.03;2.25;;;;;;;14.06;100.00;97368.56;10197667;28;20078;-65
2024/02/10 11:32:32;;;;;;;3.20;1.88;;;;;;;14.19;100.00;97364.97;10204156;28;20563;-65
2024/02/10 11:37:34;;;;;;;3.67;1.80;;;;;;;14.34;98.34;97356.63;10204524;28;20065;-63
2024/02/10 11:42:36;;;;;;;4.80;2.65;;;;;;;14.58;96.19;97356.84;10220532;28;20062;-64
2024/02/10 11:47:38;;;;;;;3.05;1.60;;;;;;;14.78;95.65;97351.31;10212497;28;20099;-64
2024/02/10 11:52:42;;;;;;;3.97;1.88;;;;;;;14.78;93.10;97330.72;10202404;28;20055;-64
2024/02/10 11:57:44;;;;;;;2.17;1.40;;;;;;;14.77;92.47;97315.72;10199001;28;20602;-64
2024/02/10 12:02:47;;;;;;;2.55;1.77;;;;;;;15.01;91.28;97319.34;10206631;28;20066;-64
2024/02/10 12:07:49;;;;;;;3.00;1.90;;;;;;;15.19;91.29;97318.53;10205843;28;20059;-64
2024/02/10 12:12:52;;;;;;;3.75;1.90;;;;;;;15.26;90.59;97309.56;10194163;28;20171;-64
2024/02/10 12:18:00;;;;;;;2.30;1.57;;;;;;;15.32;90.54;97300.63;10203946;28;20059;-63
2024/02/10 12:23:04;;;;;;;3.10;1.80;;;;;;;15.90;85.44;97309.97;10200400;28;20136;-63
2024/02/10 12:28:05;;;;;;;3.05;1.88;;;;;;;16.43;83.03;97314.44;10212184;28;20549;-63
2024/02/10 12:33:07;;;;;;;2.85;1.90;;;;;;;16.49;82.86;97301.97;10206627;28;20069;-63
2024/02/10 12:38:08;;;;;;;3.03;1.98;;;;;;;16.46;80.14;97297.06;10163639;28;20055;-63
2024/02/10 12:43:13;;;;;;;1.80;1.38;;;;;;;16.19;81.77;97297.50;10198125;28;20055;-64
2024/02/10 12:48:15;;;;;;;3.00;2.05;;;;;;;15.95;85.60;97285.13;10188628;28;20055;-64
2024/02/10 12:53:20;;;;;;;3.30;1.40;;;;;;;15.82;85.92;97276.25;10197503;28;20058;-65
2024/02/10 12:58:22;;;;;;;7.53;2.25;;;;;;;15.65;85.95;97280.59;10201185;28;20059;-65
2024/02/10 13:03:23;;;;;;;2.28;1.70;;;;;;;15.53;84.66;97276.00;10198639;28;20141;-63
2024/02/10 13:08:25;;;;;;;4.05;1.48;;;;;;;15.28;84.58;97269.97;10189816;28;20554;-64
2024/02/10 13:13:27;;;;;;;2.17;1.48;;;;;;;15.20;86.18;97263.88;10211456;28;20157;-63
2024/02/10 13:18:28;;;;;;;3.45;1.80;;;;;;;15.17;85.27;97256.28;10194538;28;20140;-63
2024/02/10 13:23:39;;;;;;;3.35;1.40;;;;;;;15.12;83.88;97256.16;10188465;28;20062;-62
2024/02/10 13:28:42;;;;;;;3.38;1.67;;;;;;;14.97;82.30;97247.72;10212022;28;20802;-63
2024/02/10 13:33:44;;;;;;;2.53;1.65;;;;;;;14.98;84.31;97252.00;10199147;28;20847;-64
2024/02/10 14:00:24;;;;;;;3.45;1.75;;;;;;;14.72;84.81;97232.53;10204025;28;20046;-63
2024/02/10 14:05:45;;;;;;;2.30;2.10;;;;;;;14.64;84.50;97235.53;10199185;28;20067;-63
2024/02/10 14:10:57;;;;;;;2.83;2.35;;;;;;;14.61;83.56;97230.63;10196275;28;20137;-63
2024/02/10 14:16:09;;;;;;;3.30;3.10;;;;;;;14.55;85.25;97223.47;10202576;28;20078;-64
2024/02/10 14:21:17;;;;;;;6.57;5.93;;;;;;;14.58;85.49;97213.13;10199251;28;20062;-64
2024/02/10 14:26:36;;;;;;;7.00;6.00;;;;;;;14.56;82.57;97219.72;10200653;28;20062;-64
2024/02/10 14:31:44;;;;;;;8.02;7.25;;;;;;;14.53;83.96;97206.78;10203877;28;20854;-63
2024/02/10 14:36:51;;;;;;;4.30;3.05;;;;;;;14.56;85.04;97222.41;10200586;28;20147;-64
2024/02/10 14:41:53;;;;;;;3.75;3.35;;;;;;;14.53;84.46;97230.88;10201963;28;20051;-64
2024/02/10 14:46:58;;;;;;;6.07;3.90;;;;;;;14.49;84.57;97225.97;10200470;28;20062;-64
2024/02/10 14:52:00;;;;;;;7.38;4.25;;;;;;;14.51;85.67;97231.09;10195375;28;20058;-63
2024/02/10 14:57:02;;;;;;;3.67;3.10;;;;;;;14.44;84.75;97238.38;10223832;28;20146;-64
2024/02/10 15:02:03;;;;;;;3.83;1.63;;;;;;;14.47;85.85;97228.06;10193585;28;20106;-63
2024/02/10 15:07:06;;;;;;;3.03;1.73;;;;;;;14.44;85.47;97231.19;10206244;28;20062;-64
2024/02/10 15:12:09;;;;;;;2.78;1.60;;;;;;;14.39;86.31;97223.00;10203489;28;20130;-63
2024/02/10 15:17:16;;;;;;;2.70;1.67;;;;;;;14.20;86.08;97195.41;10209184;28;20055;-63
2024/02/10 15:22:18;;;;;;;3.75;1.70;;;;;;;14.31;86.66;97208.03;10211487;28;20153;-63
2024/02/10 15:27:26;;;;;;;3.40;2.15;;;;;;;14.33;86.95;97213.19;10187876;28;20066;-63
2024/02/10 15:32:28;;;;;;;2.45;1.77;;;;;;;14.24;87.24;97209.16;10198920;28;20118;-64
2024/02/10 15:37:29;;;;;;;4.18;2.40;;;;;;;14.18;87.52;97204.69;10212202;28;20046;-63
2024/02/10 15:42:31;;;;;;;4.00;2.75;;;;;;;14.12;87.74;97199.19;10209930;28;20055;-64
2024/02/10 15:47:32;;;;;;;3.50;2.45;;;;;;;14.00;88.17;97189.44;10203529;28;20051;-64
2024/02/10 15:52:34;;;;;;;2.55;2.05;;;;;;;13.95;88.74;97195.44;10203983;28;20063;-63
2024/02/10 15:57:37;;;;;;;3.63;2.38;;;;;;;13.95;88.53;97182.88;10197672;28;20052;-62
2024/02/10 16:02:39;;;;;;;6.90;2.60;;;;;;;13.92;90.04;97166.47;10200925;28;20793;-63
2024/02/10 16:07:46;;;;;;;2.88;2.65;;;;;;;13.90;89.88;97179.22;10205369;28;20576;-62
2024/02/10 16:12:49;;;;;;;3.65;2.85;;;;;;;13.90;89.86;97168.53;10205118;28;20055;-64
2024/02/10 16:17:53;;;;;;;5.22;3.15;;;;;;;13.85;89.90;97160.38;10199743;28;20162;-63
2024/02/10 16:22:57;;;;;;;;;;;;;;;13.77;89.28;97164.97;10213816;28;20055;-63
2024/02/10 16:28:01;;;;;;;3.00;2.70;;;;;;;13.74;89.77;97152.03;10206309;28;19937;-64
2024/02/10 16:33:03;;;;;;;4.97;3.13;;;;;;;13.69;89.83;97156.38;10210248;28;20209;-63
2024/02/10 16:38:09;;;;;;;5.25;3.28;;;;;;;13.68;90.18;97165.47;10205832;28;20051;-63
2024/02/10 16:43:11;;;;;;;3.63;3.10;;;;;;;13.63;90.54;97163.44;10192200;28;20089;-63
2024/02/10 16:48:15;;;;;;;4.25;3.60;;;;;;;13.36;90.66;97120.91;10205737;28;20047;-63
2024/02/10 16:53:17;;;;;;;3.47;3.17;;;;;;;13.60;90.88;97150.50;10187117;28;20500;-63
2024/02/10 16:58:21;;;;;;;3.60;3.00;;;;;;;13.54;90.63;97162.91;10206450;28;20073;-63
2024/02/10 17:03:26;;;;;;;5.53;3.08;;;;;;;13.54;90.86;97148.69;10205226;28;20058;-63
2024/02/10 17:08:28;;;;;;;5.65;3.53;;;;;;;13.37;90.62;97137.75;10182148;28;20691;-63
2024/02/10 17:13:30;;;;;;;4.25;3.10;;;;;;;13.42;91.08;97152.09;10215731;28;20793;-62
2024/02/10 17:18:34;;;;;;;10.90;4.95;;;;;;;13.38;91.41;97140.19;10199701;28;20197;-63
2024/02/10 17:23:36;;;;;;;3.33;2.92;;;;;;;13.39;91.00;97152.53;10205146;28;20616;-63
2024/02/10 17:28:38;;;;;;;6.00;3.83;;;;;;;13.38;91.42;97150.88;10200067;28;20046;-64
2024/02/10 17:33:40;;;;;;;4.57;3.40;;;;;;;13.34;91.89;97160.38;10196088;28;20154;-66
2024/02/10 17:38:43;;;;;;;4.80;3.75;;;;;;;13.33;91.50;97158.72;10199014;28;20121;-64
2024/02/10 17:43:46;;;;;;;4.45;3.22;;;;;;;13.31;90.95;97160.78;10196836;28;20047;-63
2024/02/10 17:48:48;;;;;;;5.25;3.20;;;;;;;13.33;90.96;97172.06;10195775;28;22471;-64
2024/02/10 17:53:50;;;;;;;3.92;3.53;;;;;;;13.30;90.96;97166.31;10197810;28;20054;-63
2024/02/10 17:58:52;;;;;;;5.72;4.47;;;;;;;13.34;91.21;97171.06;10200093;28;20059;-63
2024/02/10 18:03:54;;;;;;;4.65;3.92;;;;;;;13.28;90.44;97182.56;10198414;28;20131;-63
2024/02/10 18:08:55;;;;;;;5.63;4.72;;;;;;;13.27;90.92;97173.75;10200169;28;20051;-63
2024/02/10 18:13:57;;;;;;;7.30;5.47;;;;;;;13.22;90.37;97170.88;10205409;28;20058;-63
2024/02/10 18:18:58;;;;;;;6.38;5.78;;;;;;;13.27;91.36;97179.09;10200954;28;20065;-63
2024/02/10 18:24:06;;;;;;;5.10;4.68;;;;;;;13.25;90.03;97180.34;10195212;28;20051;-64
2024/02/10 18:29:08;;;;;;;6.68;4.82;;;;;;;13.20;90.54;97180.19;10208402;28;20085;-63
2024/02/10 18:34:10;;;;;;;6.88;4.57;;;;;;;13.26;91.34;97172.09;10185144;28;20150;-64
2024/02/10 18:39:16;;;;;;;;;;;;;;;13.27;91.25;97165.75;10191660;28;20048;-63
2024/02/10 18:44:19;;;;;;;7.32;6.07;;;;;;;13.19;91.02;97149.16;10201302;28;20762;-64
2024/02/10 18:49:22;;;;;;;5.90;5.13;;;;;;;13.18;91.68;97163.53;10224304;28;20054;-64
2024/02/10 18:54:23;;;;;;;5.03;4.53;;;;;;;13.26;91.17;97179.31;10207383;28;20129;-63
2024/02/10 18:59:25;;;;;;;5.47;4.63;;;;;;;13.23;91.60;97180.56;10191248;28;20150;-65
2024/02/10 19:04:29;;;;;;;5.68;3.92;;;;;;;13.25;91.19;97183.00;10194207;28;20060;-65
2024/02/10 19:09:30;;;;;;;6.65;4.57;;;;;;;13.25;91.22;97202.50;10219454;28;20559;-65
2024/02/10 19:14:32;;;;;;;5.47;4.28;;;;;;;13.22;90.24;97204.81;10202997;28;20112;-66
2024/02/10 19:19:36;;;;;;;4.57;3.97;;;;;;;13.22;91.44;97194.13;10202476;28;20055;-64
2024/02/10 19:24:39;;;;;;;6.32;5.63;;;;;;;13.18;92.67;97190.22;10212507;28;20158;-64
2024/02/10 19:29:42;;;;;;;14.88;10.70;;;;;;;13.26;92.79;97190.00;10198562;28;20051;-64
2024/02/10 19:34:44;;;;;;;8.52;7.40;;;;;;;13.26;92.36;97192.66;10205809;28;20058;-64
2024/02/10 19:39:46;;;;;;;13.00;8.02;;;;;;;13.20;92.74;97193.53;10201591;28;20639;-65
2024/02/10 19:44:49;;;;;;;8.50;6.20;;;;;;;13.19;92.56;97191.88;10209163;28;20126;-65
2024/02/10 19:49:54;;;;;;;7.10;5.55;;;;;;;13.18;92.72;97203.59;10180197;28;20058;-65
2024/02/10 19:54:57;;;;;;;7.00;5.50;;;;;;;13.12;93.19;97199.09;10204259;28;20539;-65
2024/02/10 20:00:03;;;;;;;7.43;5.57;;;;;;;13.16;92.95;97209.16;10204815;28;20500;-64
2024/02/10 20:05:06;;;;;;;6.80;5.03;;;;;;;13.13;93.06;97212.25;10168893;28;20497;-65
2024/02/10 20:10:08;;;;;;;9.82;6.10;;;;;;;13.12;93.33;97204.44;10214404;28;20058;-64
2024/02/10 20:15:10;;;;;;;6.20;5.60;;;;;;;13.06;93.41;97212.31;10208399;28;20674;-63
2024/02/10 20:20:16;;;;;;;6.22;5.03;;;;;;;12.84;93.26;97187.75;10201703;28;20139;-64
2024/02/10 20:25:20;;;;;;;6.75;4.80;;;;;;;13.00;93.53;97210.47;10200242;28;20059;-64
2024/02/10 20:30:22;;;;;;;8.00;5.03;;;;;;;12.99;93.83;97219.50;10222654;28;20055;-65
2024/02/10 20:35:24;;;;;;;5.80;5.30;;;;;;;12.98;94.16;97212.53;10212534;28;20074;-66
2024/02/10 20:40:25;;;;;;;5.47;4.97;;;;;;;12.95;93.99;97226.31;10196299;28;20058;-66
2024/02/10 20:45:29;;;;;;;9.93;6.15;;;;;;;12.91;94.04;97225.13;10205768;28;20059;-65
2024/02/10 20:50:31;;;;;;;8.65;7.35;;;;;;;12.76;94.43;97190.69;10216775;28;20257;-65
2024/02/10 20:55:35;;;;;;;6.55;5.90;;;;;;;12.82;97.12;97231.69;10213470;28;20055;-65
2024/02/10 21:00:39;;;;;;;7.82;5.15;;;;;;;12.85;95.78;97237.44;10201545;28;20054;-65
2024/02/10 21:05:43;;;;;;;5.75;4.57;;;;;;;12.84;95.52;97235.00;10203666;28;20095;-65
2024/02/10 21:10:45;;;;;;;6.15;4.75;;;;;;;12.85;95.63;97231.28;10208245;28;20055;-65
2024/02/10 21:15:47;;;;;;;5.38;4.88;;;;;;;12.83;95.53;97242.16;10201446;28;20113;-64
2024/02/10 21:20:48;;;;;;;5.47;4.22;;;;;;;12.78;94.69;97236.66;10198797;28;20157;-65
2024/02/10 21:25:50;;;;;;;7.25;5.07;;;;;;;12.76;95.21;97235.22;10195045;28;20058;-65
2024/02/10 21:30:51;;;;;;;5.72;4.93;;;;;;;12.69;94.61;97241.41;10195938;28;20059;-64
2024/02/10 21:35:55;;;;;;;6.35;5.75;;;;;;;12.70;95.97;97240.38;10181298;28;20109;-64
2024/02/10 21:40:57;;;;;;;7.47;5.63;;;;;;;12.70;95.45;97231.53;10203439;28;20472;-65
2024/02/10 21:45:58;;;;;;;7.53;5.25;;;;;;;12.65;95.61;97232.16;10196399;28;20066;-64
2024/02/10 21:51:01;;;;;;;7.80;6.03;;;;;;;12.65;95.63;97240.19;10201732;28;20058;-65
2024/02/10 21:56:02;;;;;;;6.00;5.40;;;;;;;12.61;95.58;97219.47;10209093;28;20046;-64
2024/02/10 22:01:07;;;;;;;6.28;5.68;;;;;;;12.57;95.45;97219.09;10215320;28;20198;-66
2024/02/10 22:06:10;;;;;;;6.72;5.90;;;;;;;12.58;96.14;97220.72;10199451;28;20133;-66
2024/02/10 22:11:12;;;;;;;9.25;6.47;;;;;;;12.54;96.35;97214.97;10195529;28;20066;-66
2024/02/10 22:16:14;;;;;;;8.32;7.18;;;;;;;12.29;96.29;97190.03;10181829;28;20119;-65
2024/02/10 22:21:16;;;;;;;9.07;7.60;;;;;;;12.47;96.50;97238.19;10176235;28;20881;-64
2024/02/10 22:26:21;;;;;;;9.25;8.25;;;;;;;12.42;97.15;97231.84;10219392;28;20043;-65
2024/02/10 22:31:22;;;;;;;9.18;8.02;;;;;;;12.34;96.61;97246.22;10202891;28;20242;-64
2024/02/10 22:36:26;;;;;;;8.73;7.28;;;;;;;12.31;97.80;97252.81;10198185;28;20183;-64
2024/02/10 22:41:31;;;;;;;8.80;7.23;;;;;;;12.36;97.83;97252.97;10188867;28;20142;-64
2024/02/10 22:46:33;;;;;;;7.90;7.20;;;;;;;12.35;97.62;97227.31;10206030;28;20126;-64
2024/02/10 22:51:35;;;;;;;8.80;6.63;;;;;;;12.36;97.48;97215.63;10200099;28;20150;-64
2024/02/10 22:56:37;;;;;;;7.70;6.88;;;;;;;12.32;97.25;97229.59;10203886;28;20513;-64
2024/02/10 23:01:38;;;;;;;7.68;6.43;;;;;;;12.30;98.04;97219.16;10201505;28;20054;-64
2024/02/10 23:06:40;;;;;;;9.70;7.25;;;;;;;12.22;97.67;97216.72;10198772;28;20051;-65
2024/02/10 23:11:43;;;;;;;8.05;6.95;;;;;;;12.31;98.26;97230.63;10183378;28;20178;-64
2024/02/10 23:16:45;;;;;;;7.82;6.30;;;;;;;12.31;97.43;97231.47;10188531;28;20686;-65
2024/02/10 23:21:52;;;;;;;6.18;5.57;;;;;;;12.35;98.04;97250.53;10209911;28;20879;-64
2024/02/10 23:26:54;;;;;;;7.05;6.35;;;;;;;12.21;98.36;97231.06;10214865;28;20546;-65
2024/02/10 23:31:58;;;;;;;7.97;6.68;;;;;;;12.29;98.17;97244.16;10208305;28;20141;-64
2024/02/10 23:37:02;;;;;;;8.60;7.60;;;;;;;12.27;97.73;97245.44;10205741;28;20276;-65
2024/02/10 23:42:07;;;;;;;12.68;8.07;;;;;;;12.23;98.50;97239.66;10193529;28;20696;-65